sensor_id;sensor_type;location;lat;lon;timestamp;pressure;altitude;pressure_sealevel;temperature;humidity
29371;BME280;16357;52.188;7.838;2023-05-11T00:00:37;100659.25;;;18.30;59.70
29371;BME280;16357;52.188;7.838;2023-05-11T00:03:04;100658.19;;;18.24;60.29
29371;BME280;16357;52.188;7.838;2023-05-11T00:05:31;100660.50;;;18.20;60.61
29371;BME280;16357;52.188;7.838;2023-05-11T00:07:57;100669.06;;;18.17;60.40
29371;BME280;16357;52.188;7.838;2023-05-11T00:10:24;100662.19;;;18.15;61.02
29371;BME280;16357;52.188;7.838;2023-05-11T00:12:50;100652.34;;;18.14;60.81
29371;BME280;16357;52.188;7.838;2023-05-11T00:15:17;100649.63;;;18.14;60.78
29371;BME280;16357;52.188;7.838;2023-05-11T00:17:43;100646.31;;;18.12;60.68
29371;BME280;16357;52.188;7.838;2023-05-11T00:20:10;100650.06;;;18.11;60.89
29371;BME280;16357;52.188;7.838;2023-05-11T00:22:36;100647.56;;;18.09;60.60
29371;BME280;16357;52.188;7.838;2023-05-11T00:25:04;100651.31;;;18.08;60.76
29371;BME280;16357;52.188;7.838;2023-05-11T00:27:31;100644.63;;;18.04;60.60
29371;BME280;16357;52.188;7.838;2023-05-11T00:29:58;100648.81;;;18.00;60.77
29371;BME280;16357;52.188;7.838;2023-05-11T00:32:24;100646.69;;;17.95;60.81
29371;BME280;16357;52.188;7.838;2023-05-11T00:34:50;100642.94;;;17.90;61.17
29371;BME280;16357;52.188;7.838;2023-05-11T00:37:17;100643.59;;;17.85;61.29
29371;BME280;16357;52.188;7.838;2023-05-11T00:39:43;100647.72;;;17.81;61.38
29371;BME280;16357;52.188;7.838;2023-05-11T00:42:09;100652.34;;;17.81;61.73
29371;BME280;16357;52.188;7.838;2023-05-11T00:44:36;100650.84;;;17.78;61.76
29371;BME280;16357;52.188;7.838;2023-05-11T00:47:03;100644.56;;;17.77;61.76
29371;BME280;16357;52.188;7.838;2023-05-11T00:49:30;100650.84;;;17.78;61.93
29371;BME280;16357;52.188;7.838;2023-05-11T00:51:56;100642.06;;;17.76;61.79
29371;BME280;16357;52.188;7.838;2023-05-11T00:54:23;100646.44;;;17.77;61.66
29371;BME280;16357;52.188;7.838;2023-05-11T00:56:49;100644.78;;;17.76;61.64
29371;BME280;16357;52.188;7.838;2023-05-11T00:59:17;100647.47;;;17.76;61.71
29371;BME280;16357;52.188;7.838;2023-05-11T01:01:44;100642.06;;;17.76;61.79
29371;BME280;16357;52.188;7.838;2023-05-11T01:04:10;100643.94;;;17.75;61.75
29371;BME280;16357;52.188;7.838;2023-05-11T01:06:46;100650.19;;;17.76;61.38
29371;BME280;16357;52.188;7.838;2023-05-11T01:09:26;100648.53;;;17.75;61.61
29371;BME280;16357;52.188;7.838;2023-05-11T01:17:39;100648.31;;;17.70;61.76
29371;BME280;16357;52.188;7.838;2023-05-11T01:20:11;100643.91;;;17.69;61.92
29371;BME280;16357;52.188;7.838;2023-05-11T01:23:07;100647.69;;;17.68;61.87
29371;BME280;16357;52.188;7.838;2023-05-11T01:29:00;100655.00;;;17.67;61.83
29371;BME280;16357;52.188;7.838;2023-05-11T01:31:33;100647.88;;;17.66;62.23
29371;BME280;16357;52.188;7.838;2023-05-11T01:34:03;100650.81;;;17.65;61.93
29371;BME280;16357;52.188;7.838;2023-05-11T01:36:33;100649.97;;;17.64;61.78
29371;BME280;16357;52.188;7.838;2023-05-11T01:39:05;100650.16;;;17.63;61.58
29371;BME280;16357;52.188;7.838;2023-05-11T01:41:34;100659.13;;;17.63;61.66
29371;BME280;16357;52.188;7.838;2023-05-11T01:44:06;100649.53;;;17.61;61.44
29371;BME280;16357;52.188;7.838;2023-05-11T01:46:33;100650.59;;;17.60;61.42
29371;BME280;16357;52.188;7.838;2023-05-11T01:49:05;100652.25;;;17.61;61.16
29371;BME280;16357;52.188;7.838;2023-05-11T01:51:35;100654.31;;;17.59;61.42
29371;BME280;16357;52.188;7.838;2023-05-11T01:54:06;100650.78;;;17.58;61.34
29371;BME280;16357;52.188;7.838;2023-05-11T01:56:34;100653.72;;;17.57;61.60
29371;BME280;16357;52.188;7.838;2023-05-11T01:59:02;100658.28;;;17.56;61.25
29371;BME280;16357;52.188;7.838;2023-05-11T02:01:29;100654.09;;;17.53;61.19
29371;BME280;16357;52.188;7.838;2023-05-11T02:03:58;100660.56;;;17.52;61.35
29371;BME280;16357;52.188;7.838;2023-05-11T02:06:28;100661.41;;;17.53;61.12
29371;BME280;16357;52.188;7.838;2023-05-11T02:08:56;100657.22;;;17.50;61.06
29371;BME280;16357;52.188;7.838;2023-05-11T02:11:25;100663.69;;;17.49;60.92
29371;BME280;16357;52.188;7.838;2023-05-11T02:13:55;100664.53;;;17.50;61.07
29371;BME280;16357;52.188;7.838;2023-05-11T02:16:23;100663.06;;;17.47;61.53
29371;BME280;16357;52.188;7.838;2023-05-11T02:18:52;100669.53;;;17.46;61.62
29371;BME280;16357;52.188;7.838;2023-05-11T02:21:19;100673.28;;;17.45;61.52
29371;BME280;16357;52.188;7.838;2023-05-11T02:23:46;100669.09;;;17.43;61.48
29371;BME280;16357;52.188;7.838;2023-05-11T02:26:14;100672.03;;;17.41;61.22
29371;BME280;16357;52.188;7.838;2023-05-11T02:28:42;100671.38;;;17.39;61.36
29371;BME280;16357;52.188;7.838;2023-05-11T02:31:14;100663.66;;;17.36;61.14
29371;BME280;16357;52.188;7.838;2023-05-11T02:33:45;100664.69;;;17.35;61.18
29371;BME280;16357;52.188;7.838;2023-05-11T02:36:19;100668.66;;;17.32;61.39
29371;BME280;16357;52.188;7.838;2023-05-11T02:38:47;100662.78;;;17.29;61.72
29371;BME280;16357;52.188;7.838;2023-05-11T02:41:17;100677.38;;;17.28;61.56
29371;BME280;16357;52.188;7.838;2023-05-11T02:43:50;100679.47;;;17.26;61.78
29371;BME280;16357;52.188;7.838;2023-05-11T02:46:23;100672.38;;;17.25;61.65
29371;BME280;16357;52.188;7.838;2023-05-11T02:48:55;100674.44;;;17.23;61.94
29371;BME280;16357;52.188;7.838;2023-05-11T02:51:27;100683.59;;;17.22;61.99
29371;BME280;16357;52.188;7.838;2023-05-11T02:53:56;100677.56;;;17.20;62.18
29371;BME280;16357;52.188;7.838;2023-05-11T02:56:24;100685.88;;;17.18;62.31
29371;BME280;16357;52.188;7.838;2023-05-11T02:58:51;100677.13;;;17.16;62.10
29371;BME280;16357;52.188;7.838;2023-05-11T03:01:18;100679.00;;;17.16;62.47
29371;BME280;16357;52.188;7.838;2023-05-11T03:03:45;100675.44;;;17.15;62.52
29371;BME280;16357;52.188;7.838;2023-05-11T03:06:11;100685.47;;;17.15;62.78
29371;BME280;16357;52.188;7.838;2023-05-11T03:08:39;100670.22;;;17.14;62.51
29371;BME280;16357;52.188;7.838;2023-05-11T03:11:08;100679.41;;;17.13;62.56
29371;BME280;16357;52.188;7.838;2023-05-11T03:13:34;100687.53;;;17.13;62.81
29371;BME280;16357;52.188;7.838;2023-05-11T03:16:01;100684.00;;;17.12;62.75
29371;BME280;16357;52.188;7.838;2023-05-11T03:18:28;100684.81;;;17.13;62.74
29371;BME280;16357;52.188;7.838;2023-05-11T03:20:56;100676.88;;;17.11;62.67
29371;BME280;16357;52.188;7.838;2023-05-11T03:23:25;100684.19;;;17.10;62.69
29371;BME280;16357;52.188;7.838;2023-05-11T03:25:53;100679.59;;;17.11;62.56
29371;BME280;16357;52.188;7.838;2023-05-11T03:28:20;100685.22;;;17.09;62.46
29371;BME280;16357;52.188;7.838;2023-05-11T03:30:48;100688.78;;;17.10;62.67
29371;BME280;16357;52.188;7.838;2023-05-11T03:33:15;100682.53;;;17.09;62.94
29371;BME280;16357;52.188;7.838;2023-05-11T03:35:42;100683.53;;;17.08;62.99
29371;BME280;16357;52.188;7.838;2023-05-11T03:38:10;100673.75;;;17.07;62.95
29371;BME280;16357;52.188;7.838;2023-05-11T03:40:39;100679.34;;;17.06;62.98
29371;BME280;16357;52.188;7.838;2023-05-11T03:43:09;100677.88;;;17.03;62.83
29371;BME280;16357;52.188;7.838;2023-05-11T03:45:37;100676.63;;;16.99;63.10
29371;BME280;16357;52.188;7.838;2023-05-11T03:48:05;100681.41;;;16.97;63.39
29371;BME280;16357;52.188;7.838;2023-05-11T03:50:32;100677.44;;;16.93;63.55
29371;BME280;16357;52.188;7.838;2023-05-11T03:52:59;100681.16;;;16.92;63.44
29371;BME280;16357;52.188;7.838;2023-05-11T03:55:26;100677.81;;;16.90;63.65
29371;BME280;16357;52.188;7.838;2023-05-11T03:57:52;100680.50;;;16.90;64.12
29371;BME280;16357;52.188;7.838;2023-05-11T04:00:19;100680.50;;;16.90;63.93
29371;BME280;16357;52.188;7.838;2023-05-11T04:02:46;100675.09;;;16.90;64.22
29371;BME280;16357;52.188;7.838;2023-05-11T04:05:12;100684.09;;;16.91;63.77
29371;BME280;16357;52.188;7.838;2023-05-11T04:07:39;100684.91;;;16.91;63.91
29371;BME280;16357;52.188;7.838;2023-05-11T04:10:06;100679.50;;;16.91;63.94
29371;BME280;16357;52.188;7.838;2023-05-11T04:12:32;100674.91;;;16.92;64.35
29371;BME280;16357;52.188;7.838;2023-05-11T04:14:59;100673.84;;;16.93;63.94
29371;BME280;16357;52.188;7.838;2023-05-11T04:17:25;100670.97;;;16.94;64.34
29371;BME280;16357;52.188;7.838;2023-05-11T04:19:52;100671.59;;;16.96;64.32
29371;BME280;16357;52.188;7.838;2023-05-11T04:22:18;100674.97;;;16.98;64.30
29371;BME280;16357;52.188;7.838;2023-05-11T04:24:44;100672.88;;;17.00;64.15
29371;BME280;16357;52.188;7.838;2023-05-11T04:27:11;100678.94;;;17.02;64.32
29371;BME280;16357;52.188;7.838;2023-05-11T04:29:37;100676.88;;;17.04;64.07
29371;BME280;16357;52.188;7.838;2023-05-11T04:32:03;100674.16;;;17.04;63.84
29371;BME280;16357;52.188;7.838;2023-05-11T04:34:30;100674.78;;;17.06;63.73
29371;BME280;16357;52.188;7.838;2023-05-11T04:36:56;100681.03;;;17.07;63.93
29371;BME280;16357;52.188;7.838;2023-05-11T04:39:23;100680.81;;;17.08;64.30
29371;BME280;16357;52.188;7.838;2023-05-11T04:41:49;100676.47;;;17.07;64.23
29371;BME280;16357;52.188;7.838;2023-05-11T04:44:15;100688.97;;;17.08;64.37
29371;BME280;16357;52.188;7.838;2023-05-11T04:46:41;100684.19;;;17.10;64.22
29371;BME280;16357;52.188;7.838;2023-05-11T04:49:08;100685.88;;;17.11;64.33
29371;BME280;16357;52.188;7.838;2023-05-11T04:51:34;100682.75;;;17.15;64.37
29371;BME280;16357;52.188;7.838;2023-05-11T04:54:01;100687.13;;;17.16;64.23
29371;BME280;16357;52.188;7.838;2023-05-11T04:56:27;100683.38;;;17.17;64.27
29371;BME280;16357;52.188;7.838;2023-05-11T04:58:54;100691.13;;;17.20;64.34
29371;BME280;16357;52.188;7.838;2023-05-11T05:01:20;100691.13;;;17.20;64.50
29371;BME280;16357;52.188;7.838;2023-05-11T05:03:47;100698.03;;;17.22;64.46
29371;BME280;16357;52.188;7.838;2023-05-11T05:06:14;100687.78;;;17.24;64.17
29371;BME280;16357;52.188;7.838;2023-05-11T05:08:40;100696.56;;;17.26;64.48
29371;BME280;16357;52.188;7.838;2023-05-11T05:11:07;100695.13;;;17.30;64.52
29371;BME280;16357;52.188;7.838;2023-05-11T05:13:33;100694.91;;;17.32;64.58
29371;BME280;16357;52.188;7.838;2023-05-11T05:16:00;100697.22;;;17.35;64.48
29371;BME280;16357;52.188;7.838;2023-05-11T05:18:26;100703.91;;;17.39;64.55
29371;BME280;16357;52.188;7.838;2023-05-11T05:20:52;100700.16;;;17.40;64.38
29371;BME280;16357;52.188;7.838;2023-05-11T05:23:19;100699.78;;;17.43;64.41
29371;BME280;16357;52.188;7.838;2023-05-11T05:25:45;100700.19;;;17.47;64.66
29371;BME280;16357;52.188;7.838;2023-05-11T05:28:12;100702.50;;;17.50;64.82
29371;BME280;16357;52.188;7.838;2023-05-11T05:30:38;100710.03;;;17.54;64.80
29371;BME280;16357;52.188;7.838;2023-05-11T05:33:05;100710.28;;;17.60;64.76
29371;BME280;16357;52.188;7.838;2023-05-11T05:35:31;100714.22;;;17.64;64.59
29371;BME280;16357;52.188;7.838;2023-05-11T05:37:58;100720.53;;;17.71;64.22
29371;BME280;16357;52.188;7.838;2023-05-11T05:40:24;100708.84;;;17.77;64.11
29371;BME280;16357;52.188;7.838;2023-05-11T05:42:51;100714.34;;;17.84;64.12
29371;BME280;16357;52.188;7.838;2023-05-11T05:45:17;100723.53;;;17.89;64.32
29371;BME280;16357;52.188;7.838;2023-05-11T05:47:44;100719.78;;;17.97;64.14
29371;BME280;16357;52.188;7.838;2023-05-11T05:50:10;100721.66;;;18.03;63.80
29371;BME280;16357;52.188;7.838;2023-05-11T05:52:37;100725.25;;;18.10;63.81
29371;BME280;16357;52.188;7.838;2023-05-11T05:55:03;100735.28;;;18.16;63.28
29371;BME280;16357;52.188;7.838;2023-05-11T05:57:30;100735.50;;;18.21;63.64
29371;BME280;16357;52.188;7.838;2023-05-11T05:59:56;100725.66;;;18.27;63.22
29371;BME280;16357;52.188;7.838;2023-05-11T06:02:23;100733.00;;;18.33;63.21
29371;BME280;16357;52.188;7.838;2023-05-11T06:04:49;100730.28;;;18.40;62.68
29371;BME280;16357;52.188;7.838;2023-05-11T06:07:16;100733.03;;;18.47;62.52
29371;BME280;16357;52.188;7.838;2023-05-11T06:09:42;100736.97;;;18.51;62.03
29371;BME280;16357;52.188;7.838;2023-05-11T06:12:08;100735.53;;;18.55;62.23
29371;BME280;16357;52.188;7.838;2023-05-11T06:14:35;100743.88;;;18.60;62.00
29371;BME280;16357;52.188;7.838;2023-05-11T06:17:02;100737.19;;;18.62;62.05
29371;BME280;16357;52.188;7.838;2023-05-11T06:19:28;100743.03;;;18.66;61.84
29371;BME280;16357;52.188;7.838;2023-05-11T06:21:54;100739.28;;;18.67;61.58
29371;BME280;16357;52.188;7.838;2023-05-11T06:24:21;100746.38;;;18.68;61.44
29371;BME280;16357;52.188;7.838;2023-05-11T06:26:47;100741.78;;;18.69;60.67
29371;BME280;16357;52.188;7.838;2023-05-11T06:29:13;100742.22;;;18.65;60.39
29371;BME280;16357;52.188;7.838;2023-05-11T06:31:40;100750.78;;;18.62;59.98
29371;BME280;16357;52.188;7.838;2023-05-11T06:34:06;100746.38;;;18.55;59.83
29371;BME280;16357;52.188;7.838;2023-05-11T06:36:34;100755.59;;;18.47;59.93
29371;BME280;16357;52.188;7.838;2023-05-11T06:39:19;100752.25;;;18.38;60.20
29371;BME280;16357;52.188;7.838;2023-05-11T06:41:45;100746.38;;;18.28;59.67
29371;BME280;16357;52.188;7.838;2023-05-11T06:44:12;100744.88;;;18.19;60.30
29371;BME280;16357;52.188;7.838;2023-05-11T06:46:38;100752.41;;;18.10;60.37
29371;BME280;16357;52.188;7.838;2023-05-11T06:49:06;100750.06;;;18.01;60.38
29371;BME280;16357;52.188;7.838;2023-05-11T06:51:33;100744.41;;;17.89;60.40
29371;BME280;16357;52.188;7.838;2023-05-11T06:53:59;100749.53;;;17.77;60.67
29371;BME280;16357;52.188;7.838;2023-05-11T06:56:26;100757.44;;;17.65;60.71
29371;BME280;16357;52.188;7.838;2023-05-11T06:58:53;100755.50;;;17.52;61.19
29371;BME280;16357;52.188;7.838;2023-05-11T07:01:20;100750.03;;;17.39;61.24
29371;BME280;16357;52.188;7.838;2023-05-11T07:03:46;100755.81;;;17.29;61.73
29371;BME280;16357;52.188;7.838;2023-05-11T07:06:14;100761.63;;;17.20;62.38
29371;BME280;16357;52.188;7.838;2023-05-11T07:08:40;100755.72;;;17.09;62.08
29371;BME280;16357;52.188;7.838;2023-05-11T07:11:07;100763.34;;;16.99;62.42
29371;BME280;16357;52.188;7.838;2023-05-11T07:13:33;100771.63;;;16.91;62.79
29371;BME280;16357;52.188;7.838;2023-05-11T07:16:00;100769.69;;;16.85;63.10
29371;BME280;16357;52.188;7.838;2023-05-11T07:18:26;100772.19;;;16.80;63.16
29371;BME280;16357;52.188;7.838;2023-05-11T07:20:52;100773.56;;;16.76;63.72
29371;BME280;16357;52.188;7.838;2023-05-11T07:23:19;100779.16;;;16.74;64.08
29371;BME280;16357;52.188;7.838;2023-05-11T07:25:45;100778.34;;;16.74;64.24
29371;BME280;16357;52.188;7.838;2023-05-11T07:28:12;100770.84;;;16.76;64.27
29371;BME280;16357;52.188;7.838;2023-05-11T07:30:38;100772.19;;;16.80;64.30
29371;BME280;16357;52.188;7.838;2023-05-11T07:33:04;100778.88;;;16.84;64.57
29371;BME280;16357;52.188;7.838;2023-05-11T07:35:31;100777.25;;;16.89;64.02
29371;BME280;16357;52.188;7.838;2023-05-11T07:37:58;100776.66;;;16.94;64.10
29371;BME280;16357;52.188;7.838;2023-05-11T07:40:24;100770.44;;;17.00;64.25
29371;BME280;16357;52.188;7.838;2023-05-11T07:42:51;100771.31;;;17.07;63.86
29371;BME280;16357;52.188;7.838;2023-05-11T07:45:17;100771.16;;;17.16;64.11
29371;BME280;16357;52.188;7.838;2023-05-11T07:47:43;100758.50;;;17.23;64.14
29371;BME280;16357;52.188;7.838;2023-05-11T07:50:10;100767.09;;;17.33;63.81
29371;BME280;16357;52.188;7.838;2023-05-11T07:52:37;100767.59;;;17.43;63.91
29371;BME280;16357;52.188;7.838;2023-05-11T07:55:05;100771.78;;;17.52;63.40
29371;BME280;16357;52.188;7.838;2023-05-11T07:57:31;100752.63;;;17.61;62.89
29371;BME280;16357;52.188;7.838;2023-05-11T07:59:57;100758.50;;;17.71;62.78
29371;BME280;16357;52.188;7.838;2023-05-11T08:02:24;100766.50;;;17.79;62.31
29371;BME280;16357;52.188;7.838;2023-05-11T08:04:50;100766.31;;;17.87;62.36
29371;BME280;16357;52.188;7.838;2023-05-11T08:07:17;100764.47;;;17.94;62.04
29371;BME280;16357;52.188;7.838;2023-05-11T08:09:43;100763.44;;;18.02;61.87
29371;BME280;16357;52.188;7.838;2023-05-11T08:12:09;100763.25;;;18.10;61.26
29371;BME280;16357;52.188;7.838;2023-05-11T08:14:36;100763.66;;;18.14;60.64
29371;BME280;16357;52.188;7.838;2023-05-11T08:17:03;100769.75;;;18.16;60.35
29371;BME280;16357;52.188;7.838;2023-05-11T08:19:29;100768.72;;;18.17;60.08
29371;BME280;16357;52.188;7.838;2023-05-11T08:21:55;100772.44;;;18.16;59.82
29371;BME280;16357;52.188;7.838;2023-05-11T08:24:22;100777.25;;;18.14;60.02
29371;BME280;16357;52.188;7.838;2023-05-11T08:26:48;100771.22;;;18.12;60.54
29371;BME280;16357;52.188;7.838;2023-05-11T08:29:15;100775.78;;;18.11;60.21
29371;BME280;16357;52.188;7.838;2023-05-11T08:31:41;100767.84;;;18.10;60.43
29371;BME280;16357;52.188;7.838;2023-05-11T08:34:07;100773.28;;;18.10;60.70
29371;BME280;16357;52.188;7.838;2023-05-11T08:36:45;100765.97;;;18.10;60.21
29371;BME280;16357;52.188;7.838;2023-05-11T08:39:12;100772.88;;;18.13;60.73
29371;BME280;16357;52.188;7.838;2023-05-11T08:41:38;100771.63;;;18.15;60.63
29371;BME280;16357;52.188;7.838;2023-05-11T08:44:04;100770.78;;;18.21;60.78
29371;BME280;16357;52.188;7.838;2023-05-11T08:46:34;100772.47;;;18.29;60.67
29371;BME280;16357;52.188;7.838;2023-05-11T08:49:00;100774.16;;;18.37;60.04
29371;BME280;16357;52.188;7.838;2023-05-11T08:51:27;100776.91;;;18.43;59.51
29371;BME280;16357;52.188;7.838;2023-05-11T08:53:54;100775.44;;;18.48;59.33
29371;BME280;16357;52.188;7.838;2023-05-11T08:56:24;100769.56;;;18.51;59.35
29371;BME280;16357;52.188;7.838;2023-05-11T08:58:53;100773.75;;;18.53;59.06
29371;BME280;16357;52.188;7.838;2023-05-11T09:01:22;100778.16;;;18.54;58.70
29371;BME280;16357;52.188;7.838;2023-05-11T09:03:49;100777.94;;;18.56;59.11
29371;BME280;16357;52.188;7.838;2023-05-11T09:06:17;100788.41;;;18.59;58.86
29371;BME280;16357;52.188;7.838;2023-05-11T09:08:43;100779.84;;;18.62;59.00
29371;BME280;16357;52.188;7.838;2023-05-11T09:11:11;100782.97;;;18.65;59.40
29371;BME280;16357;52.188;7.838;2023-05-11T09:13:37;100783.19;;;18.71;58.82
29371;BME280;16357;52.188;7.838;2023-05-11T09:16:04;100781.09;;;18.73;58.77
29371;BME280;16357;52.188;7.838;2023-05-11T09:18:51;100785.94;;;18.77;58.19
29371;BME280;16357;52.188;7.838;2023-05-11T09:21:18;100775.91;;;18.78;58.36
29371;BME280;16357;52.188;7.838;2023-05-11T09:23:48;100785.72;;;18.79;58.36
29371;BME280;16357;52.188;7.838;2023-05-11T09:26:24;100783.84;;;18.79;57.53
29371;BME280;16357;52.188;7.838;2023-05-11T09:28:57;100784.06;;;18.78;57.84
29371;BME280;16357;52.188;7.838;2023-05-11T09:31:41;100784.25;;;18.76;58.08
29371;BME280;16357;52.188;7.838;2023-05-11T09:34:19;100782.59;;;18.75;58.45
29371;BME280;16357;52.188;7.838;2023-05-11T09:36:47;100780.50;;;18.77;57.88
29371;BME280;16357;52.188;7.838;2023-05-11T09:39:14;100773.78;;;18.80;57.52
29371;BME280;16357;52.188;7.838;2023-05-11T09:42:18;100777.78;;;18.84;57.96
29371;BME280;16357;52.188;7.838;2023-05-11T09:44:45;100777.56;;;18.85;57.88
29371;BME280;16357;52.188;7.838;2023-05-11T09:47:19;100786.78;;;18.91;57.87
29371;BME280;16357;52.188;7.838;2023-05-11T09:49:48;100787.41;;;18.93;57.78
29371;BME280;16357;52.188;7.838;2023-05-11T09:52:16;100786.75;;;18.98;57.72
29371;BME280;16357;52.188;7.838;2023-05-11T09:54:49;100779.84;;;19.02;57.80
29371;BME280;16357;52.188;7.838;2023-05-11T09:57:23;100775.03;;;19.04;57.56
29371;BME280;16357;52.188;7.838;2023-05-11T09:59:51;100782.97;;;19.05;57.15
29371;BME280;16357;52.188;7.838;2023-05-11T10:02:28;100774.00;;;19.05;57.25
29371;BME280;16357;52.188;7.838;2023-05-11T10:04:57;100778.78;;;19.03;57.10
29371;BME280;16357;52.188;7.838;2023-05-11T10:07:25;100783.84;;;18.99;57.78
29371;BME280;16357;52.188;7.838;2023-05-11T10:09:54;100769.59;;;18.97;57.19
29371;BME280;16357;52.188;7.838;2023-05-11T10:12:22;100780.47;;;18.97;57.98
29371;BME280;16357;52.188;7.838;2023-05-11T10:14:54;100778.81;;;18.96;57.75
29371;BME280;16357;52.188;7.838;2023-05-11T10:17:21;100784.44;;;18.95;57.89
29371;BME280;16357;52.188;7.838;2023-05-11T10:19:48;100776.28;;;18.95;58.47
29371;BME280;16357;52.188;7.838;2023-05-11T10:22:15;100781.72;;;18.95;57.82
29371;BME280;16357;52.188;7.838;2023-05-11T10:24:45;100775.28;;;18.96;57.74
29371;BME280;16357;52.188;7.838;2023-05-11T10:27:11;100766.06;;;18.97;58.32
29371;BME280;16357;52.188;7.838;2023-05-11T10:29:38;100771.06;;;19.00;58.97
29371;BME280;16357;52.188;7.838;2023-05-11T10:32:06;100769.19;;;19.07;59.00
29371;BME280;16357;52.188;7.838;2023-05-11T10:34:33;100767.06;;;19.16;58.61
29371;BME280;16357;52.188;7.838;2023-05-11T10:36:59;100763.28;;;19.23;58.26
29371;BME280;16357;52.188;7.838;2023-05-11T10:39:28;100768.50;;;19.32;57.87
29371;BME280;16357;52.188;7.838;2023-05-11T10:42:08;100764.31;;;19.36;57.91
29371;BME280;16357;52.188;7.838;2023-05-11T10:44:59;100770.78;;;19.41;57.63
29371;BME280;16357;52.188;7.838;2023-05-11T10:56:02;100767.16;;;19.67;57.99
29371;BME280;16357;52.188;7.838;2023-05-11T10:58:58;100764.81;;;19.78;57.67
29371;BME280;16357;52.188;7.838;2023-05-11T11:01:39;100773.56;;;19.86;56.83
29371;BME280;16357;52.188;7.838;2023-05-11T11:04:12;100770.19;;;19.91;56.40
29371;BME280;16357;52.188;7.838;2023-05-11T11:06:41;100771.03;;;19.91;56.07
29371;BME280;16357;52.188;7.838;2023-05-11T11:09:13;100769.56;;;19.89;55.62
29371;BME280;16357;52.188;7.838;2023-05-11T11:11:42;100774.81;;;19.84;55.74
29371;BME280;16357;52.188;7.838;2023-05-11T11:14:16;100777.97;;;19.81;56.14
29371;BME280;16357;52.188;7.838;2023-05-11T11:19:41;100776.28;;;19.80;57.14
29371;BME280;16357;52.188;7.838;2023-05-11T11:25:03;100785.25;;;19.93;57.39
29371;BME280;16357;52.188;7.838;2023-05-11T11:30:28;100782.41;;;20.13;56.60
29371;BME280;16357;52.188;7.838;2023-05-11T11:38:11;100780.84;;;20.31;55.72
29371;BME280;16357;52.188;7.838;2023-05-11T11:40:43;100788.19;;;20.30;55.18
29371;BME280;16357;52.188;7.838;2023-05-11T11:43:18;100789.22;;;20.29;55.13
29371;BME280;16357;52.188;7.838;2023-05-11T11:45:54;100788.00;;;20.25;55.28
29371;BME280;16357;52.188;7.838;2023-05-11T11:48:31;100789.72;;;20.20;55.36
29371;BME280;16357;52.188;7.838;2023-05-11T11:51:06;100785.97;;;20.14;56.03
29371;BME280;16357;52.188;7.838;2023-05-11T11:56:04;100795.66;;;20.03;56.16
29371;BME280;16357;52.188;7.838;2023-05-11T12:01:07;100794.88;;;19.96;56.91
29371;BME280;16357;52.188;7.838;2023-05-11T12:03:37;100791.09;;;19.97;56.66
29371;BME280;16357;52.188;7.838;2023-05-11T12:06:06;100790.03;;;19.98;56.15
29371;BME280;16357;52.188;7.838;2023-05-11T12:08:35;100791.28;;;20.02;57.23
29371;BME280;16357;52.188;7.838;2023-05-11T12:11:04;100786.84;;;20.08;55.98
29371;BME280;16357;52.188;7.838;2023-05-11T12:13:32;100787.22;;;20.11;56.37
29371;BME280;16357;52.188;7.838;2023-05-11T12:16:08;100789.53;;;20.14;55.52
29371;BME280;16357;52.188;7.838;2023-05-11T12:18:35;100789.75;;;20.13;55.64
29371;BME280;16357;52.188;7.838;2023-05-11T12:21:02;100795.41;;;20.11;56.20
29371;BME280;16357;52.188;7.838;2023-05-11T12:23:29;100794.56;;;20.11;56.81
29371;BME280;16357;52.188;7.838;2023-05-11T12:26:05;100788.91;;;20.12;55.37
29371;BME280;16357;52.188;7.838;2023-05-11T12:28:32;100784.31;;;20.13;55.95
29371;BME280;16357;52.188;7.838;2023-05-11T12:30:58;100791.22;;;20.15;56.22
29371;BME280;16357;52.188;7.838;2023-05-11T12:33:26;100782.81;;;20.17;56.32
29371;BME280;16357;52.188;7.838;2023-05-11T12:35:54;100793.91;;;20.22;55.69
29371;BME280;16357;52.188;7.838;2023-05-11T12:38:21;100790.13;;;20.23;55.59
29371;BME280;16357;52.188;7.838;2023-05-11T12:40:52;100779.59;;;20.27;55.57
29371;BME280;16357;52.188;7.838;2023-05-11T12:43:20;100785.69;;;20.29;55.28
29371;BME280;16357;52.188;7.838;2023-05-11T12:45:47;100781.28;;;20.28;54.81
29371;BME280;16357;52.188;7.838;2023-05-11T12:48:14;100781.72;;;20.25;55.74
29371;BME280;16357;52.188;7.838;2023-05-11T12:50:45;100783.84;;;20.23;55.58
29371;BME280;16357;52.188;7.838;2023-05-11T12:53:12;100771.69;;;20.18;55.91
29371;BME280;16357;52.188;7.838;2023-05-11T12:55:40;100779.25;;;20.16;56.38
29371;BME280;16357;52.188;7.838;2023-05-11T12:58:14;100772.75;;;20.17;56.19
29371;BME280;16357;52.188;7.838;2023-05-11T13:00:55;100768.53;;;20.22;55.94
29371;BME280;16357;52.188;7.838;2023-05-11T13:03:27;100768.72;;;20.27;56.01
29371;BME280;16357;52.188;7.838;2023-05-11T13:06:06;100767.84;;;20.33;56.57
29371;BME280;16357;52.188;7.838;2023-05-11T13:08:37;100765.28;;;20.38;55.82
29371;BME280;16357;52.188;7.838;2023-05-11T13:11:21;100769.03;;;20.44;55.86
29371;BME280;16357;52.188;7.838;2023-05-11T13:13:48;100766.88;;;20.46;55.88
29371;BME280;16357;52.188;7.838;2023-05-11T13:16:24;100770.66;;;20.51;55.50
29371;BME280;16357;52.188;7.838;2023-05-11T13:19:02;100768.13;;;20.56;55.41
29371;BME280;16357;52.188;7.838;2023-05-11T13:21:30;100759.72;;;20.58;55.51
29371;BME280;16357;52.188;7.838;2023-05-11T13:23:59;100769.97;;;20.63;55.37
29371;BME280;16357;52.188;7.838;2023-05-11T13:26:28;100756.69;;;20.66;54.76
29371;BME280;16357;52.188;7.838;2023-05-11T13:28:55;100762.78;;;20.68;55.12
29371;BME280;16357;52.188;7.838;2023-05-11T13:34:09;100768.44;;;20.67;54.75
29371;BME280;16357;52.188;7.838;2023-05-11T13:36:37;100761.53;;;20.64;54.50